Time;durP1;ratioP1;P1;durP2;ratioP2;P2;SDS_P1;SDS_P2;PMS_P1;PMS_P2;Temp;Humidity;BMP_temperature;BMP_pressure;BME280_temperature;BME280_humidity;BME280_pressure;Samples;Min_cycle;Max_cycle;Signal;HPM_P1;HPM_P2
2021/06/29 00:02:12;;;;;;;8.27;6.00;;;21.50;99.90;;;;;;5074349;28;20031;-53
2021/06/29 00:04:38;;;;;;;8.45;6.43;;;21.30;96.60;;;;;;5077053;28;20028;-53
2021/06/29 00:07:04;;;;;;;8.93;5.38;;;21.50;99.90;;;;;;5067403;28;20041;-55
2021/06/29 00:09:29;;;;;;;8.15;5.38;;;21.50;99.90;;;;;;5069819;28;20051;-52
2021/06/29 00:11:55;;;;;;;9.35;5.65;;;21.50;99.90;;;;;;5071793;28;20040;-54
2021/06/29 00:14:22;;;;;;;8.38;6.18;;;21.40;99.90;;;;;;5078556;28;20028;-55
2021/06/29 00:16:48;;;;;;;9.75;5.82;;;;;;;;;;5075379;28;20034;-54
2021/06/29 00:19:13;;;;;;;7.30;5.53;;;21.30;98.90;;;;;;5060109;28;20040;-54
2021/06/29 00:21:39;;;;;;;6.28;5.68;;;21.30;99.90;;;;;;5072444;28;20024;-54
2021/06/29 00:24:06;;;;;;;8.88;6.00;;;21.30;99.90;;;;;;5062274;28;20072;-55
2021/06/29 00:26:31;;;;;;;7.32;5.75;;;21.20;99.90;;;;;;5051050;28;20052;-53
2021/06/29 00:28:58;;;;;;;6.43;5.68;;;21.10;98.40;;;;;;5078432;28;20528;-55
2021/06/29 00:31:24;;;;;;;7.50;5.60;;;21.10;99.00;;;;;;5078399;28;20029;-55
2021/06/29 00:33:50;;;;;;;7.20;5.70;;;21.00;99.30;;;;;;5082195;28;20040;-53
2021/06/29 00:36:17;;;;;;;8.65;5.85;;;21.10;99.80;;;;;;5077961;28;20037;-52
2021/06/29 00:38:43;;;;;;;8.02;6.95;;;21.10;99.60;;;;;;5085509;28;20047;-54
2021/06/29 00:41:09;;;;;;;13.60;9.77;;;21.10;99.80;;;;;;5080510;28;20545;-53
2021/06/29 00:43:35;;;;;;;11.65;8.75;;;21.20;99.90;;;;;;5073983;28;20415;-55
2021/06/29 00:46:01;;;;;;;10.55;7.70;;;21.20;99.90;;;;;;5073950;28;20051;-55
2021/06/29 00:48:27;;;;;;;11.63;7.50;;;21.20;99.90;;;;;;5082631;28;20024;-55
2021/06/29 00:50:53;;;;;;;12.68;7.45;;;21.20;99.90;;;;;;5082023;28;20028;-53
2021/06/29 00:53:19;;;;;;;13.10;7.97;;;21.20;99.90;;;;;;5073630;28;20375;-55
2021/06/29 00:55:45;;;;;;;12.80;8.00;;;21.20;99.90;;;;;;5080317;28;20111;-53
2021/06/29 00:58:12;;;;;;;11.20;7.00;;;21.20;99.90;;;;;;5079528;28;20028;-54
2021/06/29 01:00:41;;;;;;;13.02;7.53;;;21.20;99.90;;;;;;5076492;28;20028;-55
2021/06/29 01:03:07;;;;;;;8.35;6.68;;;21.10;99.90;;;;;;5082550;28;20028;-55
2021/06/29 01:05:34;;;;;;;8.80;6.13;;;21.10;99.90;;;;;;5081014;28;20044;-55
2021/06/29 01:08:00;;;;;;;12.02;5.78;;;21.10;99.90;;;;;;5080082;28;20039;-53
2021/06/29 01:10:27;;;;;;;10.15;6.75;;;21.10;99.90;;;;;;5078747;28;20349;-54
2021/06/29 01:12:53;;;;;;;13.60;5.50;;;21.10;99.90;;;;;;5080042;28;20052;-54
2021/06/29 01:15:23;;;;;;;12.90;6.03;;;21.20;99.90;;;;;;5076311;28;20021;-55
2021/06/29 01:17:53;;;;;;;12.15;6.80;;;21.10;99.90;;;;;;5068534;28;20025;-53
2021/06/29 01:20:26;;;;;;;10.52;6.03;;;21.10;99.90;;;;;;5075733;28;20048;-53
2021/06/29 01:22:55;;;;;;;;;;;21.10;99.90;;;;;;5081541;28;20039;-53
2021/06/29 01:25:24;;;;;;;10.40;6.93;;;21.00;99.50;;;;;;5078861;28;20318;-53
2021/06/29 01:32:49;;;;;;;7.72;7.00;;;20.80;99.90;;;;;;5082930;28;20118;-53
2021/06/29 01:35:16;;;;;;;12.07;6.25;;;20.80;99.90;;;;;;5074197;28;20072;-53
2021/06/29 01:37:42;;;;;;;13.82;7.10;;;20.70;99.90;;;;;;5073880;28;20345;-55
2021/06/29 01:42:37;;;;;;;9.10;6.70;;;20.40;99.90;;;;;;5048346;28;20120;-52
2021/06/29 01:45:05;;;;;;;10.07;6.70;;;20.50;99.90;;;;;;5023256;28;20136;-54
2021/06/29 01:47:52;;;;;;;8.73;6.95;;;20.40;99.90;;;;;;5003885;28;20498;-55
2021/06/29 01:50:18;;;;;;;7.90;7.10;;;20.40;99.90;;;;;;5052735;28;20029;-52
2021/06/29 01:52:45;;;;;;;7.68;6.50;;;20.40;99.90;;;;;;5024888;28;20040;-55
2021/06/29 01:55:11;;;;;;;11.27;6.97;;;20.50;99.90;;;;;;5011648;28;20030;-55
2021/06/29 01:57:40;;;;;;;7.35;6.65;;;20.50;99.90;;;;;;4996779;28;20124;-54
2021/06/29 02:00:10;;;;;;;8.55;7.07;;;20.50;99.90;;;;;;5018625;28;20440;-55
2021/06/29 02:02:36;;;;;;;10.95;7.40;;;20.50;99.90;;;;;;4983947;28;20050;-54
2021/06/29 02:05:03;;;;;;;8.65;7.15;;;20.40;99.90;;;;;;5018634;28;20373;-54
2021/06/29 02:07:29;;;;;;;11.88;7.30;;;20.50;99.90;;;;;;5014890;28;20397;-54
2021/06/29 02:09:55;;;;;;;10.20;6.70;;;20.50;99.90;;;;;;5016955;28;20045;-53
2021/06/29 02:12:20;;;;;;;9.80;7.38;;;20.50;99.90;;;;;;5017261;28;20034;-53
2021/06/29 02:14:46;;;;;;;10.90;7.07;;;20.50;99.90;;;;;;4951909;28;20073;-52
2021/06/29 02:17:12;;;;;;;8.65;7.47;;;20.50;99.90;;;;;;5017748;28;20113;-52
2021/06/29 02:19:37;;;;;;;9.02;8.13;;;20.50;99.90;;;;;;5010575;28;20052;-54
2021/06/29 02:22:06;;;;;;;8.85;7.53;;;20.50;99.90;;;;;;5052560;28;20503;-53
2021/06/29 02:24:32;;;;;;;11.60;7.72;;;20.60;99.90;;;;;;5049644;28;20029;-53
2021/06/29 02:26:58;;;;;;;9.43;7.13;;;20.50;99.90;;;;;;5075049;28;20120;-53
2021/06/29 02:29:24;;;;;;;9.18;7.82;;;20.60;99.90;;;;;;5087657;28;20526;-52
2021/06/29 02:31:52;;;;;;;9.15;7.80;;;20.60;99.90;;;;;;5075475;28;20115;-55
2021/06/29 02:34:18;;;;;;;9.38;7.90;;;20.60;99.90;;;;;;5083744;28;20048;-55
2021/06/29 02:36:44;;;;;;;11.68;6.90;;;20.60;99.90;;;;;;5076742;28;20029;-52
2021/06/29 02:39:09;;;;;;;8.60;7.10;;;20.60;99.90;;;;;;5077731;28;20106;-56
2021/06/29 02:41:35;;;;;;;9.43;8.27;;;20.60;99.90;;;;;;5085537;28;20024;-52
2021/06/29 02:44:01;;;;;;;8.23;7.22;;;20.60;99.90;;;;;;5077849;28;20094;-53
2021/06/29 02:46:27;;;;;;;8.32;7.32;;;20.60;99.90;;;;;;5077471;28;20040;-54
2021/06/29 02:48:55;;;;;;;10.55;7.47;;;20.60;99.90;;;;;;5078788;28;20111;-54
2021/06/29 02:51:21;;;;;;;8.25;7.43;;;20.60;99.90;;;;;;5081271;28;20491;-53
2021/06/29 02:53:47;;;;;;;9.48;7.25;;;20.60;99.90;;;;;;5085462;28;20067;-53
2021/06/29 02:58:58;;;;;;;10.15;7.63;;;20.60;99.90;;;;;;5070774;28;20043;-55
2021/06/29 03:01:23;;;;;;;8.90;7.95;;;20.60;99.90;;;;;;5058203;28;20041;-55
2021/06/29 03:03:50;;;;;;;8.88;7.68;;;20.60;99.90;;;;;;5076263;28;20048;-54
2021/06/29 03:06:16;;;;;;;10.77;8.00;;;20.50;99.90;;;;;;5091396;28;20502;-54
2021/06/29 03:08:42;;;;;;;9.95;7.82;;;20.60;99.90;;;;;;5076741;28;20451;-52
2021/06/29 03:11:08;;;;;;;12.52;8.07;;;20.60;99.90;;;;;;5077571;28;20059;-52
2021/06/29 03:13:33;;;;;;;11.05;7.78;;;20.60;99.90;;;;;;5077160;28;20339;-53
2021/06/29 03:15:59;;;;;;;9.80;7.38;;;20.60;99.90;;;;;;5078411;28;20058;-54
2021/06/29 03:18:25;;;;;;;9.90;7.57;;;20.50;99.90;;;;;;5052330;28;20087;-53
2021/06/29 03:20:51;;;;;;;9.32;7.68;;;20.60;99.90;;;;;;5071620;28;20029;-55
2021/06/29 03:23:16;;;;;;;11.05;7.35;;;20.60;99.90;;;;;;5088961;28;20020;-54
2021/06/29 03:25:42;;;;;;;9.48;6.63;;;20.70;99.90;;;;;;5079489;28;20071;-53
2021/06/29 03:28:09;;;;;;;9.60;7.32;;;20.70;99.90;;;;;;5077173;28;20124;-54
2021/06/29 03:30:35;;;;;;;12.07;7.47;;;20.80;99.90;;;;;;5063361;28;20526;-51
2021/06/29 03:33:00;;;;;;;8.38;7.10;;;20.80;99.90;;;;;;5077947;28;20109;-54
2021/06/29 03:35:26;;;;;;;10.82;7.90;;;20.90;99.90;;;;;;5081120;28;20050;-52
2021/06/29 03:37:53;;;;;;;10.30;8.38;;;20.90;99.90;;;;;;5073744;28;20029;-54
2021/06/29 03:40:18;;;;;;;11.85;8.05;;;20.90;99.90;;;;;;5071573;28;20082;-55
2021/06/29 03:42:44;;;;;;;12.32;7.90;;;20.90;99.90;;;;;;5084606;28;20028;-56
2021/06/29 03:45:11;;;;;;;10.23;8.70;;;20.90;99.90;;;;;;5073245;28;20373;-56
2021/06/29 03:47:36;;;;;;;9.57;7.68;;;20.80;99.90;;;;;;5074322;28;20024;-55
2021/06/29 03:50:04;;;;;;;8.90;8.00;;;20.90;99.90;;;;;;5071360;28;20032;-56
2021/06/29 03:52:30;;;;;;;8.93;8.02;;;20.90;99.90;;;;;;5041974;28;20043;-52
2021/06/29 03:54:56;;;;;;;9.68;8.70;;;20.90;99.90;;;;;;5076051;28;20036;-56
2021/06/29 03:57:22;;;;;;;12.07;7.93;;;20.90;99.90;;;;;;5084637;28;20033;-52
2021/06/29 03:59:48;;;;;;;8.20;7.38;;;21.00;99.90;;;;;;5076972;28;20028;-52
2021/06/29 04:02:14;;;;;;;9.35;8.07;;;21.10;99.90;;;;;;5075439;28;20107;-51
2021/06/29 04:04:40;;;;;;;10.48;8.35;;;21.20;99.90;;;;;;5067940;28;20532;-53
2021/06/29 04:07:08;;;;;;;14.82;8.18;;;21.20;99.90;;;;;;5073636;28;20040;-56
2021/06/29 04:09:34;;;;;;;9.15;7.80;;;21.20;99.90;;;;;;5053217;28;20047;-51
2021/06/29 04:12:00;;;;;;;12.30;7.60;;;21.20;99.90;;;;;;5054960;28;20032;-51
2021/06/29 04:14:26;;;;;;;11.52;7.85;;;21.30;99.90;;;;;;5076536;28;20123;-52
2021/06/29 04:16:52;;;;;;;9.85;7.97;;;21.40;99.90;;;;;;5069959;28;20037;-53
2021/06/29 04:19:18;;;;;;;12.80;8.73;;;;;;;;;;5033527;28;20033;-54
2021/06/29 04:21:44;;;;;;;13.45;9.10;;;21.50;99.90;;;;;;5067675;28;20463;-56
2021/06/29 04:24:09;;;;;;;10.85;8.98;;;21.60;99.90;;;;;;5085173;28;20029;-52
2021/06/29 04:26:35;;;;;;;10.35;9.25;;;21.70;99.90;;;;;;5082422;28;20082;-53
2021/06/29 04:29:02;;;;;;;12.68;9.23;;;21.70;99.90;;;;;;5028839;28;20488;-52
2021/06/29 04:31:28;;;;;;;17.77;9.73;;;;;;;;;;5069747;28;20047;-52
2021/06/29 04:33:54;;;;;;;13.43;8.52;;;22.00;99.90;;;;;;5075297;28;20059;-53
2021/06/29 04:36:20;;;;;;;14.48;9.23;;;;;;;;;;5070718;28;20025;-53
2021/06/29 04:38:47;;;;;;;10.20;8.50;;;;;;;;;;5081057;28;20048;-55
2021/06/29 04:41:13;;;;;;;12.68;8.18;;;22.30;99.90;;;;;;5064376;28;20599;-52
2021/06/29 04:43:42;;;;;;;12.02;9.00;;;22.50;99.90;;;;;;5067650;28;20090;-52
2021/06/29 04:46:08;;;;;;;8.93;8.02;;;22.60;99.90;;;;;;5070167;28;20523;-53
2021/06/29 04:48:37;;;;;;;10.15;8.18;;;22.70;99.90;;;;;;5074387;28;20036;-52
2021/06/29 04:51:03;;;;;;;11.77;8.15;;;22.80;99.30;;;;;;5071824;28;20036;-52
2021/06/29 04:53:29;;;;;;;10.85;7.18;;;22.90;98.90;;;;;;5078433;28;20036;-55
2021/06/29 04:55:55;;;;;;;11.52;7.50;;;;;;;;;;5077839;28;20118;-52
2021/06/29 04:58:21;;;;;;;9.48;6.45;;;23.20;98.10;;;;;;5076065;28;20353;-52
2021/06/29 05:00:49;;;;;;;6.60;5.97;;;;;;;;;;5076159;28;20080;-53
2021/06/29 05:03:16;;;;;;;8.43;6.65;;;23.50;95.70;;;;;;5060573;28;20473;-54
2021/06/29 05:05:42;;;;;;;6.97;6.28;;;23.50;96.30;;;;;;5073390;28;20101;-52
2021/06/29 05:08:08;;;;;;;8.00;6.55;;;23.60;96.40;;;;;;5068288;28;20020;-52
2021/06/29 05:10:34;;;;;;;10.45;6.38;;;;;;;;;;5076822;28;20078;-52
2021/06/29 05:13:00;;;;;;;9.45;7.60;;;23.80;95.90;;;;;;5074522;28;20612;-52
2021/06/29 05:15:26;;;;;;;7.38;6.65;;;23.70;96.00;;;;;;5068382;28;20040;-52
2021/06/29 05:17:52;;;;;;;10.48;7.85;;;23.80;95.50;;;;;;5071805;28;20095;-52
2021/06/29 05:20:18;;;;;;;10.27;7.80;;;23.70;96.50;;;;;;5069355;28;20035;-53
2021/06/29 05:22:43;;;;;;;14.02;8.15;;;23.70;96.70;;;;;;5072296;28;20490;-54
2021/06/29 05:25:10;;;;;;;9.35;7.10;;;23.80;96.60;;;;;;5072573;28;20432;-53
2021/06/29 05:27:42;;;;;;;10.88;7.07;;;;;;;;;;5065971;28;20047;-55
2021/06/29 05:30:09;;;;;;;8.13;7.10;;;;;;;;;;5073485;28;20121;-55
2021/06/29 05:32:36;;;;;;;10.57;7.47;;;24.40;95.20;;;;;;5020899;28;20039;-55
2021/06/29 05:35:03;;;;;;;11.45;7.60;;;;;;;;;;5096887;28;20044;-55
2021/06/29 05:37:29;;;;;;;11.95;8.27;;;24.60;95.90;;;;;;5071127;28;20062;-54
2021/06/29 05:39:55;;;;;;;13.20;7.43;;;24.60;96.10;;;;;;5057188;28;20037;-56
2021/06/29 05:42:20;;;;;;;7.30;6.25;;;24.60;95.10;;;;;;5071804;28;20502;-54
2021/06/29 05:44:46;;;;;;;9.32;7.30;;;24.90;94.50;;;;;;5062767;28;20029;-55
2021/06/29 05:47:19;;;;;;;10.43;7.70;;;24.70;94.30;;;;;;5067399;28;20131;-55
2021/06/29 05:49:45;;;;;;;11.57;7.75;;;24.80;95.10;;;;;;5062068;28;20438;-56
2021/06/29 05:52:11;;;;;;;8.20;7.40;;;25.10;95.20;;;;;;5065038;28;20025;-54
2021/06/29 05:54:37;;;;;;;8.27;7.38;;;25.20;94.30;;;;;;5072847;28;20085;-54
2021/06/29 05:57:03;;;;;;;10.65;7.22;;;25.30;94.00;;;;;;5081579;28;20429;-55
2021/06/29 05:59:30;;;;;;;8.88;7.70;;;;;;;;;;5076614;28;20073;-54
2021/06/29 06:01:56;;;;;;;10.85;7.22;;;25.50;93.40;;;;;;5074319;28;20094;-54
2021/06/29 06:04:21;;;;;;;9.73;7.57;;;25.50;93.50;;;;;;5080687;28;20016;-55
2021/06/29 06:06:48;;;;;;;9.73;6.95;;;;;;;;;;5074316;28;20025;-54
2021/06/29 06:09:13;;;;;;;9.27;6.93;;;25.80;92.50;;;;;;5072003;28;20387;-55
2021/06/29 06:11:39;;;;;;;13.32;7.68;;;;;;;;;;5073883;28;20039;-55
2021/06/29 06:14:05;;;;;;;12.07;7.20;;;26.00;92.10;;;;;;5075843;28;20045;-54
2021/06/29 06:16:31;;;;;;;8.82;6.90;;;26.20;92.40;;;;;;5077754;28;20020;-53
2021/06/29 06:18:57;;;;;;;10.63;7.00;;;26.20;91.80;;;;;;5071693;28;20025;-53
2021/06/29 06:21:25;;;;;;;11.05;6.53;;;26.30;91.00;;;;;;5070656;28;20468;-56
2021/06/29 06:23:50;;;;;;;7.65;6.18;;;26.40;91.20;;;;;;5058864;28;20185;-55
2021/06/29 06:26:16;;;;;;;10.65;5.95;;;26.50;90.40;;;;;;5067939;28;20135;-55
2021/06/29 06:28:42;;;;;;;9.05;6.10;;;26.70;90.30;;;;;;5057461;28;20071;-54
2021/06/29 06:31:08;;;;;;;9.27;6.32;;;26.70;89.60;;;;;;5055976;28;20652;-55
2021/06/29 06:33:34;;;;;;;9.38;5.80;;;26.90;89.50;;;;;;5062899;28;20035;-54
2021/06/29 06:35:59;;;;;;;8.73;6.28;;;27.00;89.20;;;;;;5075636;28;20491;-54
2021/06/29 06:38:25;;;;;;;8.07;6.00;;;27.10;88.60;;;;;;5069549;28;20025;-56
2021/06/29 06:40:51;;;;;;;9.15;5.85;;;27.30;88.70;;;;;;5075303;28;20117;-54
2021/06/29 06:43:17;;;;;;;10.88;6.25;;;27.40;87.90;;;;;;5051798;28;20487;-55
2021/06/29 06:45:43;;;;;;;9.65;6.18;;;27.50;88.10;;;;;;5044896;28;20490;-55
2021/06/29 06:48:09;;;;;;;11.32;5.68;;;27.60;88.30;;;;;;5076110;28;20103;-53
2021/06/29 06:50:34;;;;;;;11.40;7.00;;;27.80;88.90;;;;;;5076629;28;20177;-55
2021/06/29 06:53:00;;;;;;;13.25;6.00;;;28.00;87.90;;;;;;5014204;28;20043;-54
2021/06/29 06:55:26;;;;;;;9.02;6.22;;;28.10;86.00;;;;;;5036785;28;20033;-55
2021/06/29 06:57:53;;;;;;;14.85;6.55;;;28.20;86.80;;;;;;5058610;28;20036;-55
2021/06/29 07:00:21;;;;;;;12.57;5.95;;;27.90;86.80;;;;;;5055967;28;20071;-55
2021/06/29 07:02:47;;;;;;;7.05;5.70;;;28.30;86.80;;;;;;5045253;28;20525;-55
2021/06/29 07:05:13;;;;;;;8.27;6.30;;;28.20;86.70;;;;;;5055532;28;20037;-54
2021/06/29 07:07:39;;;;;;;9.88;5.95;;;28.20;85.60;;;;;;5033303;28;20072;-55
2021/06/29 07:10:06;;;;;;;11.55;6.47;;;28.50;84.40;;;;;;4999766;28;20120;-54
2021/06/29 07:12:32;;;;;;;9.52;6.15;;;28.70;85.80;;;;;;5034478;28;20032;-54
2021/06/29 07:14:58;;;;;;;7.38;6.05;;;28.90;85.00;;;;;;5040641;28;20530;-56
2021/06/29 07:17:24;;;;;;;8.30;5.88;;;28.60;83.80;;;;;;4989192;28;20042;-53
2021/06/29 07:19:51;;;;;;;15.70;6.25;;;28.70;83.80;;;;;;5012547;28;20843;-56
2021/06/29 07:22:19;;;;;;;7.55;5.40;;;28.70;83.10;;;;;;5023552;28;20033;-55
2021/06/29 07:24:45;;;;;;;6.30;5.70;;;29.00;82.20;;;;;;5072733;28;20060;-56
2021/06/29 07:27:11;;;;;;;6.70;5.32;;;29.10;84.30;;;;;;5072564;28;20106;-54
2021/06/29 07:29:38;;;;;;;9.55;6.70;;;29.10;79.60;;;;;;5072351;28;20032;-54
2021/06/29 07:32:05;;;;;;;6.68;5.00;;;29.20;81.40;;;;;;5075641;28;20102;-55
2021/06/29 07:34:31;;;;;;;8.95;5.05;;;29.30;79.10;;;;;;5085616;28;20126;-56
2021/06/29 07:36:57;;;;;;;7.22;4.80;;;29.60;80.30;;;;;;5021289;28;20123;-53
2021/06/29 07:39:23;;;;;;;9.82;5.35;;;29.80;79.80;;;;;;5080224;28;20037;-53
2021/06/29 07:41:49;;;;;;;5.82;5.10;;;30.00;77.80;;;;;;5041492;28;20051;-55
2021/06/29 07:44:15;;;;;;;7.85;5.00;;;30.30;77.00;;;;;;5073922;28;20033;-55
2021/06/29 07:46:41;;;;;;;7.75;5.15;;;30.40;76.90;;;;;;5079913;28;20085;-55
2021/06/29 07:49:07;;;;;;;9.57;5.20;;;30.30;75.90;;;;;;5087285;28;20149;-56
2021/06/29 07:51:33;;;;;;;9.40;5.22;;;30.20;75.80;;;;;;5057761;28;20119;-53
2021/06/29 07:53:59;;;;;;;6.10;4.65;;;30.50;75.90;;;;;;5080237;28;20032;-56
2021/06/29 07:56:25;;;;;;;10.07;5.70;;;30.20;74.60;;;;;;5079031;28;20038;-55
2021/06/29 07:58:51;;;;;;;8.15;5.05;;;30.60;76.90;;;;;;5073365;28;20029;-56
2021/06/29 08:01:18;;;;;;;7.57;4.78;;;30.90;75.90;;;;;;5084893;28;20075;-53
2021/06/29 08:03:44;;;;;;;5.57;4.57;;;31.00;75.80;;;;;;5080958;28;20383;-52
2021/06/29 08:06:10;;;;;;;11.43;4.93;;;30.90;75.10;;;;;;5075683;28;20372;-58
2021/06/29 08:08:38;;;;;;;14.38;5.07;;;31.20;75.40;;;;;;5064185;28;21100;-59
2021/06/29 08:11:07;;;;;;;8.07;5.10;;;31.40;73.20;;;;;;5067575;28;20530;-56
2021/06/29 08:13:34;;;;;;;8.32;4.75;;;31.40;72.10;;;;;;5075412;28;20085;-54
2021/06/29 08:16:00;;;;;;;30.35;9.18;;;31.20;70.40;;;;;;5071252;28;20064;-55
2021/06/29 08:18:28;;;;;;;8.10;4.97;;;31.50;72.20;;;;;;5077333;28;20425;-57
2021/06/29 08:20:57;;;;;;;10.65;5.05;;;31.70;72.10;;;;;;5081782;28;20036;-57
2021/06/29 08:23:25;;;;;;;9.60;5.40;;;31.60;72.50;;;;;;5079269;28;20024;-58
2021/06/29 08:25:51;;;;;;;7.72;4.70;;;31.70;69.70;;;;;;5078335;28;20072;-57
2021/06/29 08:28:17;;;;;;;6.10;4.55;;;31.70;69.80;;;;;;5076894;28;20033;-57
2021/06/29 08:30:43;;;;;;;13.52;5.70;;;32.10;68.00;;;;;;5081936;28;20031;-56
2021/06/29 08:33:13;;;;;;;8.70;5.03;;;31.70;68.70;;;;;;5077214;28;20052;-53
2021/06/29 08:35:41;;;;;;;9.88;5.07;;;32.10;67.80;;;;;;5065549;28;20075;-54
2021/06/29 08:38:07;;;;;;;10.00;5.85;;;32.30;67.50;;;;;;5053500;28;20119;-54
2021/06/29 08:40:37;;;;;;;9.23;4.95;;;32.10;68.40;;;;;;5042794;28;20040;-55
2021/06/29 08:43:08;;;;;;;9.32;6.18;;;32.20;66.20;;;;;;5070673;28;20028;-53
2021/06/29 08:45:34;;;;;;;8.63;5.43;;;32.50;68.10;;;;;;5078797;28;20539;-54
2021/06/29 08:48:02;;;;;;;12.60;6.28;;;33.00;66.30;;;;;;5076644;28;20659;-54
2021/06/29 08:50:31;;;;;;;6.07;5.35;;;34.20;63.70;;;;;;5083755;28;20483;-55
2021/06/29 08:53:06;;;;;;;13.48;5.93;;;35.70;62.20;;;;;;5075001;28;20036;-54
2021/06/29 08:55:44;;;;;;;8.68;5.55;;;35.20;62.30;;;;;;5079705;28;20066;-54
2021/06/29 08:58:14;;;;;;;8.88;5.53;;;35.40;62.00;;;;;;5079211;28;20082;-55
2021/06/29 09:00:39;;;;;;;11.75;5.60;;;36.40;60.70;;;;;;5072459;28;20336;-54
2021/06/29 09:03:06;;;;;;;9.15;6.32;;;37.80;58.30;;;;;;5073394;28;20058;-54
2021/06/29 09:05:32;;;;;;;7.97;5.88;;;38.60;56.90;;;;;;5080843;28;20028;-54
2021/06/29 09:08:09;;;;;;;8.48;6.30;;;39.00;56.70;;;;;;5070037;28;20031;-56
2021/06/29 09:10:37;;;;;;;7.18;5.65;;;39.40;55.70;;;;;;5078095;28;20032;-54
2021/06/29 09:13:05;;;;;;;10.90;5.93;;;40.60;54.40;;;;;;5077321;28;20063;-54
2021/06/29 09:15:40;;;;;;;18.08;8.90;;;41.40;54.00;;;;;;5074911;28;20043;-53
2021/06/29 09:18:05;;;;;;;7.63;6.82;;;42.80;53.00;;;;;;5068917;28;20479;-53
2021/06/29 09:20:40;;;;;;;9.20;6.55;;;40.00;50.60;;;;;;5068305;28;20034;-54
2021/06/29 09:23:14;;;;;;;7.72;6.93;;;39.30;52.40;;;;;;5054725;28;20039;-53
2021/06/29 09:25:46;;;;;;;8.20;6.05;;;41.10;51.80;;;;;;5076047;28;20043;-52
2021/06/29 09:28:21;;;;;;;6.97;5.80;;;39.80;51.20;;;;;;5076183;28;20033;-53
2021/06/29 09:30:50;;;;;;;11.40;6.38;;;41.30;50.40;;;;;;5069343;28;20028;-54
2021/06/29 09:33:20;;;;;;;8.60;6.10;;;43.40;49.90;;;;;;5055649;28;20123;-53
2021/06/29 09:35:51;;;;;;;8.70;6.28;;;43.90;47.40;;;;;;5062729;28;20057;-52
2021/06/29 09:38:22;;;;;;;8.15;6.35;;;43.50;46.60;;;;;;5034087;28;20049;-53
2021/06/29 09:41:05;;;;;;;8.48;6.07;;;44.10;48.50;;;;;;5071230;28;20064;-54
2021/06/29 09:43:37;;;;;;;5.65;5.15;;;44.10;45.30;;;;;;5069941;28;20132;-53
2021/06/29 09:46:07;;;;;;;11.82;6.25;;;44.90;44.80;;;;;;5070128;28;20041;-53
2021/06/29 09:48:44;;;;;;;9.55;5.85;;;44.50;45.10;;;;;;5066435;28;20377;-52
2021/06/29 09:51:20;;;;;;;5.00;4.60;;;43.60;45.50;;;;;;5079846;28;20368;-52
2021/06/29 09:53:51;;;;;;;7.43;5.03;;;44.40;45.00;;;;;;5065994;28;20105;-53
2021/06/29 09:56:19;;;;;;;11.90;5.07;;;42.80;44.50;;;;;;5076813;28;20039;-53
2021/06/29 09:58:49;;;;;;;8.32;5.68;;;41.40;45.70;;;;;;5074640;28;20036;-52
2021/06/29 10:01:17;;;;;;;8.40;6.17;;;42.10;45.40;;;;;;5078467;28;20067;-53
2021/06/29 10:03:44;;;;;;;11.15;5.60;;;41.70;47.00;;;;;;5073018;28;20056;-53
2021/06/29 10:06:30;;;;;;;6.00;5.30;;;42.10;45.80;;;;;;5072389;28;20414;-54
2021/06/29 10:09:01;;;;;;;11.55;5.70;;;45.30;44.80;;;;;;5069436;28;20530;-53
2021/06/29 10:11:32;;;;;;;9.18;5.70;;;45.60;42.80;;;;;;5074490;28;20035;-53
2021/06/29 10:14:00;;;;;;;7.63;5.03;;;;;;;;;;5075263;28;20028;-53
2021/06/29 10:16:31;;;;;;;12.15;5.55;;;45.30;41.50;;;;;;5073617;28;20025;-52
2021/06/29 10:21:26;;;;;;;6.82;5.15;;;45.90;43.20;;;;;;5080930;28;20056;-53
2021/06/29 10:24:04;;;;;;;9.05;5.35;;;44.50;42.40;;;;;;5084009;28;20020;-54
2021/06/29 10:26:32;;;;;;;6.22;4.97;;;45.20;41.70;;;;;;5089059;28;20112;-54
2021/06/29 10:28:59;;;;;;;5.47;4.95;;;44.30;41.80;;;;;;5066871;28;20033;-53
2021/06/29 10:31:28;;;;;;;7.75;4.85;;;47.40;41.40;;;;;;5071589;28;20020;-55
2021/06/29 10:33:57;;;;;;;5.85;4.93;;;46.10;41.10;;;;;;5074709;28;20063;-53
2021/06/29 10:36:24;;;;;;;7.63;5.47;;;48.40;41.50;;;;;;5074487;28;20029;-53
2021/06/29 10:38:52;;;;;;;6.95;4.68;;;51.00;39.80;;;;;;5064859;28;20068;-54
2021/06/29 10:41:22;;;;;;;6.93;3.55;;;48.00;39.40;;;;;;5075100;28;20036;-53
2021/06/29 10:43:49;;;;;;;8.15;3.25;;;46.40;36.30;;;;;;5077545;28;20036;-54
2021/06/29 10:46:35;;;;;;;6.57;3.88;;;47.70;36.40;;;;;;5081940;28;20048;-55
2021/06/29 10:49:29;;;;;;;6.35;3.80;;;47.10;37.50;;;;;;5078633;28;20082;-55
2021/06/29 10:51:57;;;;;;;5.00;4.07;;;46.60;37.60;;;;;;5075696;28;20059;-55
2021/06/29 10:54:42;;;;;;;7.72;4.28;;;45.40;39.50;;;;;;5092356;28;20028;-54
2021/06/29 10:57:15;;;;;;;5.95;3.70;;;44.70;38.30;;;;;;5054395;28;20037;-54
2021/06/29 10:59:49;;;;;;;4.78;3.78;;;43.80;38.30;;;;;;5057444;28;20036;-54
2021/06/29 11:02:33;;;;;;;5.97;3.72;;;44.70;38.60;;;;;;5071897;28;20028;-54
2021/06/29 11:05:08;;;;;;;6.30;4.15;;;49.60;37.60;;;;;;5072734;28;20028;-55
2021/06/29 11:07:46;;;;;;;5.72;2.90;;;47.30;36.40;;;;;;5077586;28;20036;-54
2021/06/29 11:10:36;;;;;;;4.95;3.53;;;46.10;36.00;;;;;;5073486;28;20039;-54
2021/06/29 11:13:04;;;;;;;4.68;2.80;;;46.80;36.60;;;;;;5081569;28;20116;-54
2021/06/29 11:15:53;;;;;;;5.88;3.05;;;46.70;34.80;;;;;;5068763;28;20047;-53
2021/06/29 11:18:40;;;;;;;4.13;2.70;;;45.20;35.30;;;;;;5081877;28;20078;-54
2021/06/29 11:21:08;;;;;;;5.85;2.70;;;45.40;36.00;;;;;;5068384;28;20131;-53
2021/06/29 11:23:35;;;;;;;6.18;2.85;;;47.40;35.30;;;;;;5083890;28;20032;-54
2021/06/29 11:26:22;;;;;;;6.07;3.25;;;45.70;35.40;;;;;;5080677;28;20135;-54
2021/06/29 11:28:51;;;;;;;7.43;3.83;;;44.50;36.00;;;;;;5072911;28;20039;-54
2021/06/29 11:31:23;;;;;;;5.80;3.20;;;45.40;38.70;;;;;;5076036;28;20522;-54
2021/06/29 11:33:49;;;;;;;7.60;3.17;;;47.30;35.40;;;;;;5069507;28;20028;-54
2021/06/29 11:36:28;;;;;;;5.18;3.35;;;45.80;34.90;;;;;;5078483;28;20037;-53
2021/06/29 11:38:58;;;;;;;8.35;3.40;;;45.40;36.70;;;;;;5076981;28;20033;-54
2021/06/29 11:41:24;;;;;;;5.78;3.42;;;43.10;37.40;;;;;;5077162;28;20103;-54
2021/06/29 11:43:51;;;;;;;7.00;3.40;;;45.00;37.60;;;;;;5082567;28;20119;-53
2021/06/29 11:46:54;;;;;;;6.35;3.00;;;45.40;36.80;;;;;;5076873;28;20143;-53
2021/06/29 11:49:43;;;;;;;10.43;3.90;;;45.60;36.70;;;;;;5078593;28;20033;-54
2021/06/29 11:52:16;;;;;;;8.63;2.88;;;45.60;36.70;;;;;;5062587;28;20037;-53
2021/06/29 11:54:59;;;;;;;9.00;3.40;;;49.20;36.50;;;;;;5065012;28;20494;-54
2021/06/29 11:57:42;;;;;;;6.75;3.45;;;46.50;35.40;;;;;;5062776;28;20028;-54
2021/06/29 12:00:27;;;;;;;9.80;3.65;;;46.60;36.50;;;;;;5065337;28;20021;-53
2021/06/29 12:03:06;;;;;;;9.30;3.70;;;46.50;35.90;;;;;;5061153;28;20091;-53
2021/06/29 12:05:35;;;;;;;6.18;3.00;;;49.40;35.80;;;;;;5036117;28;20036;-53
2021/06/29 12:08:05;;;;;;;6.38;3.28;;;50.80;34.90;;;;;;5055006;28;20547;-56
2021/06/29 12:10:32;;;;;;;8.27;4.03;;;48.80;34.90;;;;;;5056286;28;20052;-54
2021/06/29 12:12:59;;;;;;;6.80;3.80;;;49.80;35.50;;;;;;5071853;28;20032;-55
2021/06/29 12:15:27;;;;;;;8.90;4.00;;;49.50;36.50;;;;;;5074745;28;20036;-54
2021/06/29 12:17:55;;;;;;;9.93;3.75;;;53.00;35.10;;;;;;5064639;28;20028;-53
2021/06/29 12:20:24;;;;;;;7.32;4.20;;;55.00;35.40;;;;;;5071755;28;20625;-57
2021/06/29 12:22:51;;;;;;;11.82;5.45;;;57.20;34.10;;;;;;5074184;28;20033;-62
2021/06/29 12:25:23;;;;;;;13.80;7.25;;;58.00;33.90;;;;;;5071477;28;20040;-62
2021/06/29 12:27:52;;;;;;;9.25;3.75;;;58.20;33.00;;;;;;5074892;28;20411;-59
2021/06/29 12:30:23;;;;;;;9.02;3.75;;;58.40;33.80;;;;;;5055925;28;20075;-60
2021/06/29 12:32:49;;;;;;;8.20;4.15;;;55.30;34.80;;;;;;5074229;28;20497;-61
2021/06/29 12:35:15;;;;;;;12.15;3.70;;;55.30;33.50;;;;;;5074233;28;20072;-61
2021/06/29 12:37:53;;;;;;;7.45;3.65;;;55.90;33.40;;;;;;5074291;28;20033;-60
2021/06/29 12:40:19;;;;;;;6.20;3.90;;;51.70;32.90;;;;;;5074037;28;20032;-62
2021/06/29 12:42:45;;;;;;;9.32;4.40;;;51.30;34.20;;;;;;5054834;28;20051;-64
2021/06/29 12:45:12;;;;;;;12.02;4.30;;;53.90;34.40;;;;;;5074011;28;20032;-66
2021/06/29 12:47:38;;;;;;;11.52;4.82;;;52.30;34.80;;;;;;5074287;28;20044;-62
2021/06/29 12:50:08;;;;;;;9.90;4.45;;;53.80;33.70;;;;;;5053447;28;20896;-60
2021/06/29 12:52:34;;;;;;;11.85;4.82;;;52.50;33.90;;;;;;5011092;28;20044;-59
2021/06/29 12:55:13;;;;;;;14.57;4.10;;;49.80;33.60;;;;;;5073651;28;20115;-58
2021/06/29 12:57:40;;;;;;;10.00;3.88;;;49.00;35.40;;;;;;5074195;28;20029;-61
2021/06/29 13:00:11;;;;;;;8.45;4.40;;;50.70;35.40;;;;;;5073879;28;20033;-62
2021/06/29 13:02:43;;;;;;;11.07;4.32;;;50.50;34.80;;;;;;5073807;28;20040;-64
2021/06/29 13:05:23;;;;;;;10.20;4.63;;;49.70;35.00;;;;;;5073914;28;20090;-60
2021/06/29 13:07:52;;;;;;;11.88;4.35;;;48.40;35.90;;;;;;5073810;28;20449;-62